sensor_id;sensor_type;location;lat;lon;timestamp;P1;durP1;ratioP1;P2;durP2;ratioP2
76167;SDS011;64927;48.214;16.378;2023-04-24T00:01:49;8.88;;;3.38;;
76167;SDS011;64927;48.214;16.378;2023-04-24T00:04:15;5.43;;;3.38;;
76167;SDS011;64927;48.214;16.378;2023-04-24T00:06:43;6.72;;;3.17;;
76167;SDS011;64927;48.214;16.378;2023-04-24T00:09:09;4.53;;;3.28;;
76167;SDS011;64927;48.214;16.378;2023-04-24T00:11:37;4.57;;;3.38;;
76167;SDS011;64927;48.214;16.378;2023-04-24T00:14:03;3.70;;;3.17;;
76167;SDS011;64927;48.214;16.378;2023-04-24T00:16:31;5.22;;;3.90;;
76167;SDS011;64927;48.214;16.378;2023-04-24T00:18:59;5.57;;;3.50;;
76167;SDS011;64927;48.214;16.378;2023-04-24T00:21:28;4.38;;;3.22;;
76167;SDS011;64927;48.214;16.378;2023-04-24T00:23:57;4.45;;;3.33;;
76167;SDS011;64927;48.214;16.378;2023-04-24T00:26:25;4.30;;;3.13;;
76167;SDS011;64927;48.214;16.378;2023-04-24T00:28:51;6.30;;;3.17;;
76167;SDS011;64927;48.214;16.378;2023-04-24T00:31:17;5.53;;;3.30;;
76167;SDS011;64927;48.214;16.378;2023-04-24T00:33:45;5.03;;;3.40;;
76167;SDS011;64927;48.214;16.378;2023-04-24T00:36:11;4.63;;;3.65;;
76167;SDS011;64927;48.214;16.378;2023-04-24T00:38:37;6.95;;;3.25;;
76167;SDS011;64927;48.214;16.378;2023-04-24T00:41:02;3.95;;;2.95;;
76167;SDS011;64927;48.214;16.378;2023-04-24T00:43:28;6.05;;;3.40;;
76167;SDS011;64927;48.214;16.378;2023-04-24T00:45:54;4.45;;;3.03;;
76167;SDS011;64927;48.214;16.378;2023-04-24T00:48:20;5.53;;;3.55;;
76167;SDS011;64927;48.214;16.378;2023-04-24T00:50:46;4.28;;;3.25;;
76167;SDS011;64927;48.214;16.378;2023-04-24T00:53:14;7.07;;;3.47;;
76167;SDS011;64927;48.214;16.378;2023-04-24T00:55:40;6.57;;;3.50;;
76167;SDS011;64927;48.214;16.378;2023-04-24T00:58:09;6.93;;;3.78;;
76167;SDS011;64927;48.214;16.378;2023-04-24T01:00:35;4.70;;;3.67;;
76167;SDS011;64927;48.214;16.378;2023-04-24T01:03:00;7.22;;;3.47;;
76167;SDS011;64927;48.214;16.378;2023-04-24T01:05:29;5.32;;;3.70;;
76167;SDS011;64927;48.214;16.378;2023-04-24T01:07:55;5.47;;;3.58;;
76167;SDS011;64927;48.214;16.378;2023-04-24T01:10:21;6.97;;;3.75;;
76167;SDS011;64927;48.214;16.378;2023-04-24T01:12:47;4.45;;;3.47;;
76167;SDS011;64927;48.214;16.378;2023-04-24T01:15:13;5.13;;;3.63;;
76167;SDS011;64927;48.214;16.378;2023-04-24T01:17:42;5.97;;;4.05;;
76167;SDS011;64927;48.214;16.378;2023-04-24T01:20:07;7.30;;;4.50;;
76167;SDS011;64927;48.214;16.378;2023-04-24T01:22:34;8.43;;;4.03;;
76167;SDS011;64927;48.214;16.378;2023-04-24T01:25:00;9.60;;;3.90;;
76167;SDS011;64927;48.214;16.378;2023-04-24T01:27:26;5.93;;;3.80;;
76167;SDS011;64927;48.214;16.378;2023-04-24T01:29:51;5.88;;;3.92;;
76167;SDS011;64927;48.214;16.378;2023-04-24T01:32:18;6.45;;;4.00;;
76167;SDS011;64927;48.214;16.378;2023-04-24T01:34:45;5.38;;;4.53;;
76167;SDS011;64927;48.214;16.378;2023-04-24T01:37:11;6.32;;;4.38;;
76167;SDS011;64927;48.214;16.378;2023-04-24T01:39:39;6.30;;;3.50;;
76167;SDS011;64927;48.214;16.378;2023-04-24T01:42:05;6.20;;;3.85;;
76167;SDS011;64927;48.214;16.378;2023-04-24T01:44:34;9.43;;;3.92;;
76167;SDS011;64927;48.214;16.378;2023-04-24T01:47:02;6.85;;;4.22;;
76167;SDS011;64927;48.214;16.378;2023-04-24T01:49:28;6.60;;;4.03;;
76167;SDS011;64927;48.214;16.378;2023-04-24T01:51:56;7.47;;;4.43;;
76167;SDS011;64927;48.214;16.378;2023-04-24T01:54:22;6.10;;;4.25;;
76167;SDS011;64927;48.214;16.378;2023-04-24T01:56:47;5.32;;;4.20;;
76167;SDS011;64927;48.214;16.378;2023-04-24T01:59:16;5.40;;;3.72;;
76167;SDS011;64927;48.214;16.378;2023-04-24T02:01:42;6.70;;;4.55;;
76167;SDS011;64927;48.214;16.378;2023-04-24T02:04:08;5.15;;;3.78;;
76167;SDS011;64927;48.214;16.378;2023-04-24T02:06:34;8.18;;;4.88;;
76167;SDS011;64927;48.214;16.378;2023-04-24T02:09:00;8.88;;;4.55;;
76167;SDS011;64927;48.214;16.378;2023-04-24T02:11:26;6.82;;;4.28;;
76167;SDS011;64927;48.214;16.378;2023-04-24T02:13:52;6.20;;;3.90;;
76167;SDS011;64927;48.214;16.378;2023-04-24T02:16:17;5.07;;;3.92;;
76167;SDS011;64927;48.214;16.378;2023-04-24T02:18:46;5.90;;;3.40;;
76167;SDS011;64927;48.214;16.378;2023-04-24T02:21:11;5.10;;;3.70;;
76167;SDS011;64927;48.214;16.378;2023-04-24T02:23:37;4.40;;;3.10;;
76167;SDS011;64927;48.214;16.378;2023-04-24T02:26:03;4.75;;;2.83;;
76167;SDS011;64927;48.214;16.378;2023-04-24T02:28:28;4.03;;;3.00;;
76167;SDS011;64927;48.214;16.378;2023-04-24T02:30:54;4.53;;;2.92;;
76167;SDS011;64927;48.214;16.378;2023-04-24T02:33:23;4.10;;;2.92;;
76167;SDS011;64927;48.214;16.378;2023-04-24T02:35:49;3.75;;;2.50;;
76167;SDS011;64927;48.214;16.378;2023-04-24T02:38:14;3.33;;;1.98;;
76167;SDS011;64927;48.214;16.378;2023-04-24T02:40:40;3.90;;;2.47;;
76167;SDS011;64927;48.214;16.378;2023-04-24T02:43:06;3.70;;;2.75;;
76167;SDS011;64927;48.214;16.378;2023-04-24T02:45:31;5.43;;;3.08;;
76167;SDS011;64927;48.214;16.378;2023-04-24T02:48:00;7.00;;;2.70;;
76167;SDS011;64927;48.214;16.378;2023-04-24T02:50:26;6.40;;;2.97;;
76167;SDS011;64927;48.214;16.378;2023-04-24T02:52:51;4.28;;;2.97;;
76167;SDS011;64927;48.214;16.378;2023-04-24T02:55:17;5.53;;;2.75;;
76167;SDS011;64927;48.214;16.378;2023-04-24T02:57:43;4.43;;;2.95;;
76167;SDS011;64927;48.214;16.378;2023-04-24T03:00:11;4.43;;;2.92;;
76167;SDS011;64927;48.214;16.378;2023-04-24T03:02:37;4.35;;;2.60;;
76167;SDS011;64927;48.214;16.378;2023-04-24T03:05:02;3.15;;;2.35;;
76167;SDS011;64927;48.214;16.378;2023-04-24T03:07:32;5.60;;;2.40;;
76167;SDS011;64927;48.214;16.378;2023-04-24T03:09:58;3.15;;;2.25;;
76167;SDS011;64927;48.214;16.378;2023-04-24T03:12:24;3.20;;;2.42;;
76167;SDS011;64927;48.214;16.378;2023-04-24T03:14:50;2.78;;;2.00;;
76167;SDS011;64927;48.214;16.378;2023-04-24T03:17:15;2.17;;;1.98;;
76167;SDS011;64927;48.214;16.378;2023-04-24T03:19:43;5.50;;;3.00;;
76167;SDS011;64927;48.214;16.378;2023-04-24T03:22:09;3.78;;;2.50;;
76167;SDS011;64927;48.214;16.378;2023-04-24T03:24:37;3.45;;;2.22;;
76167;SDS011;64927;48.214;16.378;2023-04-24T03:27:02;3.05;;;2.28;;
76167;SDS011;64927;48.214;16.378;2023-04-24T03:29:28;5.22;;;3.00;;
76167;SDS011;64927;48.214;16.378;2023-04-24T03:31:54;4.28;;;2.60;;
76167;SDS011;64927;48.214;16.378;2023-04-24T03:34:19;4.35;;;2.47;;
76167;SDS011;64927;48.214;16.378;2023-04-24T03:36:45;3.50;;;2.47;;
76167;SDS011;64927;48.214;16.378;2023-04-24T03:39:13;2.92;;;2.00;;
76167;SDS011;64927;48.214;16.378;2023-04-24T03:41:39;3.92;;;2.25;;
76167;SDS011;64927;48.214;16.378;2023-04-24T03:44:05;3.97;;;2.22;;
76167;SDS011;64927;48.214;16.378;2023-04-24T03:46:30;3.47;;;2.38;;
76167;SDS011;64927;48.214;16.378;2023-04-24T03:48:56;2.83;;;2.22;;
76167;SDS011;64927;48.214;16.378;2023-04-24T03:51:22;2.75;;;2.40;;
76167;SDS011;64927;48.214;16.378;2023-04-24T03:53:50;3.60;;;2.58;;
76167;SDS011;64927;48.214;16.378;2023-04-24T03:56:15;5.55;;;2.90;;
76167;SDS011;64927;48.214;16.378;2023-04-24T03:58:41;2.88;;;2.20;;
76167;SDS011;64927;48.214;16.378;2023-04-24T04:01:07;4.13;;;2.65;;
76167;SDS011;64927;48.214;16.378;2023-04-24T04:03:33;3.70;;;2.20;;
76167;SDS011;64927;48.214;16.378;2023-04-24T04:06:01;2.70;;;2.20;;
76167;SDS011;64927;48.214;16.378;2023-04-24T04:08:27;4.10;;;1.98;;
76167;SDS011;64927;48.214;16.378;2023-04-24T04:10:53;3.28;;;2.42;;
76167;SDS011;64927;48.214;16.378;2023-04-24T04:13:18;5.65;;;2.08;;
76167;SDS011;64927;48.214;16.378;2023-04-24T04:15:44;3.45;;;2.40;;
76167;SDS011;64927;48.214;16.378;2023-04-24T04:18:12;4.38;;;2.75;;
76167;SDS011;64927;48.214;16.378;2023-04-24T04:20:38;2.67;;;2.03;;
76167;SDS011;64927;48.214;16.378;2023-04-24T04:23:06;3.25;;;2.03;;
76167;SDS011;64927;48.214;16.378;2023-04-24T04:25:31;2.90;;;1.90;;
76167;SDS011;64927;48.214;16.378;2023-04-24T04:27:57;2.15;;;1.88;;
76167;SDS011;64927;48.214;16.378;2023-04-24T04:30:24;3.10;;;2.13;;
76167;SDS011;64927;48.214;16.378;2023-04-24T04:32:50;5.35;;;2.65;;
76167;SDS011;64927;48.214;16.378;2023-04-24T04:35:16;2.33;;;1.67;;
76167;SDS011;64927;48.214;16.378;2023-04-24T04:37:42;2.70;;;2.00;;
76167;SDS011;64927;48.214;16.378;2023-04-24T04:40:08;3.13;;;2.00;;
76167;SDS011;64927;48.214;16.378;2023-04-24T04:42:37;4.18;;;2.33;;
76167;SDS011;64927;48.214;16.378;2023-04-24T04:45:06;3.80;;;1.83;;
76167;SDS011;64927;48.214;16.378;2023-04-24T04:47:33;3.15;;;1.77;;
76167;SDS011;64927;48.214;16.378;2023-04-24T04:50:02;1.98;;;1.73;;
76167;SDS011;64927;48.214;16.378;2023-04-24T04:52:28;3.28;;;1.70;;
76167;SDS011;64927;48.214;16.378;2023-04-24T04:54:54;3.10;;;1.90;;
76167;SDS011;64927;48.214;16.378;2023-04-24T04:57:22;3.58;;;1.98;;
76167;SDS011;64927;48.214;16.378;2023-04-24T04:59:53;2.05;;;1.70;;
76167;SDS011;64927;48.214;16.378;2023-04-24T05:02:18;3.00;;;1.90;;
76167;SDS011;64927;48.214;16.378;2023-04-24T05:04:44;3.17;;;1.67;;
76167;SDS011;64927;48.214;16.378;2023-04-24T05:07:10;8.82;;;2.03;;
76167;SDS011;64927;48.214;16.378;2023-04-24T05:09:36;2.22;;;1.35;;
76167;SDS011;64927;48.214;16.378;2023-04-24T05:12:02;3.13;;;1.75;;
76167;SDS011;64927;48.214;16.378;2023-04-24T05:14:31;4.00;;;1.95;;
76167;SDS011;64927;48.214;16.378;2023-04-24T05:16:56;2.53;;;1.98;;
76167;SDS011;64927;48.214;16.378;2023-04-24T05:19:22;1.60;;;1.42;;
76167;SDS011;64927;48.214;16.378;2023-04-24T05:21:47;2.55;;;1.40;;
76167;SDS011;64927;48.214;16.378;2023-04-24T05:24:18;2.05;;;1.40;;
76167;SDS011;64927;48.214;16.378;2023-04-24T05:26:43;3.08;;;1.65;;
76167;SDS011;64927;48.214;16.378;2023-04-24T05:29:09;2.55;;;1.90;;
76167;SDS011;64927;48.214;16.378;2023-04-24T05:31:35;3.13;;;1.60;;
76167;SDS011;64927;48.214;16.378;2023-04-24T05:34:00;2.30;;;1.60;;
76167;SDS011;64927;48.214;16.378;2023-04-24T05:36:28;4.97;;;1.83;;
76167;SDS011;64927;48.214;16.378;2023-04-24T05:38:54;2.42;;;1.80;;
76167;SDS011;64927;48.214;16.378;2023-04-24T05:41:20;4.43;;;1.73;;
76167;SDS011;64927;48.214;16.378;2023-04-24T05:43:47;2.83;;;1.88;;
76167;SDS011;64927;48.214;16.378;2023-04-24T05:46:12;4.35;;;1.67;;
76167;SDS011;64927;48.214;16.378;2023-04-24T05:48:41;2.92;;;1.70;;
76167;SDS011;64927;48.214;16.378;2023-04-24T05:51:06;1.80;;;1.52;;
76167;SDS011;64927;48.214;16.378;2023-04-24T05:53:32;3.33;;;2.08;;
76167;SDS011;64927;48.214;16.378;2023-04-24T05:55:58;2.85;;;1.50;;
76167;SDS011;64927;48.214;16.378;2023-04-24T05:58:23;3.47;;;1.60;;
76167;SDS011;64927;48.214;16.378;2023-04-24T06:00:49;1.77;;;1.42;;
76167;SDS011;64927;48.214;16.378;2023-04-24T06:03:14;1.50;;;1.40;;
76167;SDS011;64927;48.214;16.378;2023-04-24T06:05:40;3.35;;;1.55;;
76167;SDS011;64927;48.214;16.378;2023-04-24T06:08:06;3.55;;;1.30;;
76167;SDS011;64927;48.214;16.378;2023-04-24T06:10:32;5.28;;;1.33;;
76167;SDS011;64927;48.214;16.378;2023-04-24T06:12:57;3.60;;;1.58;;
76167;SDS011;64927;48.214;16.378;2023-04-24T06:15:26;3.08;;;1.95;;
76167;SDS011;64927;48.214;16.378;2023-04-24T06:17:53;1.30;;;1.20;;
76167;SDS011;64927;48.214;16.378;2023-04-24T06:20:19;2.95;;;1.65;;
76167;SDS011;64927;48.214;16.378;2023-04-24T06:22:45;1.88;;;1.30;;
76167;SDS011;64927;48.214;16.378;2023-04-24T06:25:10;3.50;;;1.30;;
76167;SDS011;64927;48.214;16.378;2023-04-24T06:27:36;1.92;;;1.35;;
76167;SDS011;64927;48.214;16.378;2023-04-24T06:30:04;2.17;;;1.40;;
76167;SDS011;64927;48.214;16.378;2023-04-24T06:32:31;2.50;;;1.60;;
76167;SDS011;64927;48.214;16.378;2023-04-24T06:34:56;2.10;;;1.38;;
76167;SDS011;64927;48.214;16.378;2023-04-24T06:37:22;2.05;;;1.58;;
76167;SDS011;64927;48.214;16.378;2023-04-24T06:39:48;3.08;;;1.70;;
76167;SDS011;64927;48.214;16.378;2023-04-24T06:42:14;2.58;;;1.33;;
76167;SDS011;64927;48.214;16.378;2023-04-24T06:44:43;4.97;;;1.40;;
76167;SDS011;64927;48.214;16.378;2023-04-24T06:47:10;2.05;;;1.50;;
76167;SDS011;64927;48.214;16.378;2023-04-24T06:49:38;1.58;;;1.48;;
76167;SDS011;64927;48.214;16.378;2023-04-24T06:52:05;2.05;;;1.40;;
76167;SDS011;64927;48.214;16.378;2023-04-24T06:54:31;4.13;;;1.77;;
76167;SDS011;64927;48.214;16.378;2023-04-24T06:56:57;4.15;;;2.00;;
76167;SDS011;64927;48.214;16.378;2023-04-24T06:59:25;3.47;;;1.58;;
76167;SDS011;64927;48.214;16.378;2023-04-24T07:01:54;1.50;;;1.30;;
76167;SDS011;64927;48.214;16.378;2023-04-24T07:04:22;1.70;;;1.30;;
76167;SDS011;64927;48.214;16.378;2023-04-24T07:06:50;3.03;;;1.35;;
76167;SDS011;64927;48.214;16.378;2023-04-24T07:09:19;2.03;;;1.48;;
76167;SDS011;64927;48.214;16.378;2023-04-24T07:11:45;3.38;;;2.08;;
76167;SDS011;64927;48.214;16.378;2023-04-24T07:14:13;6.97;;;3.78;;
76167;SDS011;64927;48.214;16.378;2023-04-24T07:16:41;2.05;;;1.20;;
76167;SDS011;64927;48.214;16.378;2023-04-24T07:19:07;1.27;;;1.17;;
76167;SDS011;64927;48.214;16.378;2023-04-24T07:21:33;3.22;;;1.85;;
76167;SDS011;64927;48.214;16.378;2023-04-24T07:23:59;2.65;;;1.40;;
76167;SDS011;64927;48.214;16.378;2023-04-24T07:26:25;1.25;;;1.08;;
76167;SDS011;64927;48.214;16.378;2023-04-24T07:28:52;2.97;;;1.67;;
76167;SDS011;64927;48.214;16.378;2023-04-24T07:31:20;2.00;;;1.35;;
76167;SDS011;64927;48.214;16.378;2023-04-24T07:33:46;4.93;;;1.00;;
76167;SDS011;64927;48.214;16.378;2023-04-24T07:36:11;2.33;;;1.40;;
76167;SDS011;64927;48.214;16.378;2023-04-24T07:38:41;5.25;;;1.55;;
76167;SDS011;64927;48.214;16.378;2023-04-24T07:41:07;2.67;;;1.58;;
76167;SDS011;64927;48.214;16.378;2023-04-24T07:43:33;1.77;;;1.48;;
76167;SDS011;64927;48.214;16.378;2023-04-24T07:45:59;3.05;;;1.42;;
76167;SDS011;64927;48.214;16.378;2023-04-24T07:48:25;3.70;;;1.27;;
76167;SDS011;64927;48.214;16.378;2023-04-24T07:50:53;2.10;;;1.80;;
76167;SDS011;64927;48.214;16.378;2023-04-24T07:53:18;1.83;;;1.27;;
76167;SDS011;64927;48.214;16.378;2023-04-24T07:55:49;1.65;;;1.05;;
76167;SDS011;64927;48.214;16.378;2023-04-24T07:58:17;1.85;;;1.15;;
76167;SDS011;64927;48.214;16.378;2023-04-24T08:00:42;2.10;;;1.60;;
76167;SDS011;64927;48.214;16.378;2023-04-24T08:03:08;4.53;;;0.95;;
76167;SDS011;64927;48.214;16.378;2023-04-24T08:05:33;1.25;;;0.98;;
76167;SDS011;64927;48.214;16.378;2023-04-24T08:08:02;1.90;;;1.15;;
76167;SDS011;64927;48.214;16.378;2023-04-24T08:10:30;1.95;;;1.13;;
76167;SDS011;64927;48.214;16.378;2023-04-24T08:12:55;2.67;;;1.20;;
76167;SDS011;64927;48.214;16.378;2023-04-24T08:15:21;2.17;;;1.40;;
76167;SDS011;64927;48.214;16.378;2023-04-24T08:17:47;5.53;;;1.52;;
76167;SDS011;64927;48.214;16.378;2023-04-24T08:20:15;1.52;;;1.23;;
76167;SDS011;64927;48.214;16.378;2023-04-24T08:22:41;2.50;;;1.35;;
76167;SDS011;64927;48.214;16.378;2023-04-24T08:25:08;2.00;;;1.40;;
76167;SDS011;64927;48.214;16.378;2023-04-24T08:27:35;1.92;;;1.35;;
76167;SDS011;64927;48.214;16.378;2023-04-24T08:30:02;1.25;;;0.90;;
76167;SDS011;64927;48.214;16.378;2023-04-24T08:32:28;1.25;;;1.10;;
76167;SDS011;64927;48.214;16.378;2023-04-24T08:34:54;2.25;;;1.23;;
76167;SDS011;64927;48.214;16.378;2023-04-24T08:37:21;4.60;;;1.30;;
76167;SDS011;64927;48.214;16.378;2023-04-24T08:39:48;1.00;;;0.90;;
76167;SDS011;64927;48.214;16.378;2023-04-24T08:42:17;1.27;;;1.10;;
76167;SDS011;64927;48.214;16.378;2023-04-24T08:44:43;1.85;;;1.10;;
76167;SDS011;64927;48.214;16.378;2023-04-24T08:47:10;1.77;;;1.05;;
76167;SDS011;64927;48.214;16.378;2023-04-24T08:49:36;2.55;;;1.00;;
76167;SDS011;64927;48.214;16.378;2023-04-24T08:52:04;1.02;;;0.80;;
76167;SDS011;64927;48.214;16.378;2023-04-24T08:54:30;1.17;;;1.08;;
76167;SDS011;64927;48.214;16.378;2023-04-24T08:57:00;3.72;;;0.90;;
76167;SDS011;64927;48.214;16.378;2023-04-24T08:59:28;1.77;;;1.10;;
76167;SDS011;64927;48.214;16.378;2023-04-24T09:01:55;1.30;;;1.02;;
76167;SDS011;64927;48.214;16.378;2023-04-24T09:04:24;2.55;;;1.48;;
76167;SDS011;64927;48.214;16.378;2023-04-24T09:06:51;2.08;;;1.38;;
76167;SDS011;64927;48.214;16.378;2023-04-24T09:09:20;1.23;;;0.95;;
76167;SDS011;64927;48.214;16.378;2023-04-24T09:11:48;3.40;;;1.23;;
76167;SDS011;64927;48.214;16.378;2023-04-24T09:14:15;2.95;;;1.55;;
76167;SDS011;64927;48.214;16.378;2023-04-24T09:16:44;2.15;;;0.75;;
76167;SDS011;64927;48.214;16.378;2023-04-24T09:19:09;1.58;;;0.85;;
76167;SDS011;64927;48.214;16.378;2023-04-24T09:21:35;1.70;;;1.17;;
76167;SDS011;64927;48.214;16.378;2023-04-24T09:24:05;1.40;;;0.68;;
76167;SDS011;64927;48.214;16.378;2023-04-24T09:26:34;0.90;;;0.73;;
76167;SDS011;64927;48.214;16.378;2023-04-24T09:29:00;1.17;;;0.60;;
76167;SDS011;64927;48.214;16.378;2023-04-24T09:31:27;2.60;;;0.93;;
76167;SDS011;64927;48.214;16.378;2023-04-24T09:36:29;1.00;;;0.50;;
76167;SDS011;64927;48.214;16.378;2023-04-24T09:38:59;0.85;;;0.60;;
76167;SDS011;64927;48.214;16.378;2023-04-24T09:41:32;1.17;;;0.70;;
76167;SDS011;64927;48.214;16.378;2023-04-24T09:44:10;1.02;;;0.68;;
76167;SDS011;64927;48.214;16.378;2023-04-24T09:46:37;6.45;;;3.72;;
76167;SDS011;64927;48.214;16.378;2023-04-24T09:49:07;2.35;;;0.57;;
76167;SDS011;64927;48.214;16.378;2023-04-24T09:51:43;4.00;;;0.82;;
76167;SDS011;64927;48.214;16.378;2023-04-24T09:54:20;1.85;;;0.70;;
76167;SDS011;64927;48.214;16.378;2023-04-24T09:56:51;1.10;;;0.80;;
76167;SDS011;64927;48.214;16.378;2023-04-24T09:59:19;1.88;;;1.20;;
76167;SDS011;64927;48.214;16.378;2023-04-24T10:01:45;1.55;;;0.88;;
76167;SDS011;64927;48.214;16.378;2023-04-24T10:04:25;1.38;;;0.65;;
76167;SDS011;64927;48.214;16.378;2023-04-24T10:06:57;1.08;;;0.80;;
76167;SDS011;64927;48.214;16.378;2023-04-24T10:09:23;1.05;;;0.50;;
76167;SDS011;64927;48.214;16.378;2023-04-24T10:11:54;1.60;;;0.75;;
76167;SDS011;64927;48.214;16.378;2023-04-24T10:14:23;3.38;;;1.02;;
76167;SDS011;64927;48.214;16.378;2023-04-24T10:16:51;1.23;;;0.85;;
76167;SDS011;64927;48.214;16.378;2023-04-24T10:19:18;2.85;;;1.90;;
76167;SDS011;64927;48.214;16.378;2023-04-24T10:21:45;2.42;;;0.95;;
76167;SDS011;64927;48.214;16.378;2023-04-24T10:24:15;0.93;;;0.60;;
76167;SDS011;64927;48.214;16.378;2023-04-24T10:26:45;1.40;;;0.80;;
76167;SDS011;64927;48.214;16.378;2023-04-24T10:29:13;3.70;;;0.88;;
76167;SDS011;64927;48.214;16.378;2023-04-24T10:31:46;1.10;;;1.00;;
76167;SDS011;64927;48.214;16.378;2023-04-24T10:34:13;0.57;;;0.50;;
76167;SDS011;64927;48.214;16.378;2023-04-24T10:36:45;0.60;;;0.60;;
76167;SDS011;64927;48.214;16.378;2023-04-24T10:39:18;1.00;;;0.50;;
76167;SDS011;64927;48.214;16.378;2023-04-24T10:41:46;1.10;;;0.88;;
76167;SDS011;64927;48.214;16.378;2023-04-24T10:44:14;1.45;;;0.90;;
76167;SDS011;64927;48.214;16.378;2023-04-24T10:46:47;2.22;;;0.70;;
76167;SDS011;64927;48.214;16.378;2023-04-24T10:49:19;1.65;;;0.75;;
76167;SDS011;64927;48.214;16.378;2023-04-24T10:51:59;1.20;;;0.70;;
76167;SDS011;64927;48.214;16.378;2023-04-24T10:54:34;1.00;;;0.90;;
76167;SDS011;64927;48.214;16.378;2023-04-24T10:59:48;1.27;;;0.85;;
76167;SDS011;64927;48.214;16.378;2023-04-24T11:02:14;1.00;;;0.73;;
76167;SDS011;64927;48.214;16.378;2023-04-24T11:04:41;1.83;;;0.90;;
76167;SDS011;64927;48.214;16.378;2023-04-24T11:07:12;1.20;;;0.88;;
76167;SDS011;64927;48.214;16.378;2023-04-24T11:09:38;1.45;;;0.80;;
76167;SDS011;64927;48.214;16.378;2023-04-24T11:12:08;0.68;;;0.43;;
76167;SDS011;64927;48.214;16.378;2023-04-24T11:17:50;1.17;;;0.70;;
76167;SDS011;64927;48.214;16.378;2023-04-24T11:20:22;1.42;;;0.75;;
76167;SDS011;64927;48.214;16.378;2023-04-24T11:22:50;1.40;;;0.70;;
76167;SDS011;64927;48.214;16.378;2023-04-24T11:25:22;0.80;;;0.70;;
76167;SDS011;64927;48.214;16.378;2023-04-24T11:27:51;2.58;;;0.80;;
76167;SDS011;64927;48.214;16.378;2023-04-24T11:30:29;1.10;;;0.80;;
76167;SDS011;64927;48.214;16.378;2023-04-24T11:32:56;1.33;;;0.82;;
76167;SDS011;64927;48.214;16.378;2023-04-24T11:35:30;0.80;;;0.70;;
76167;SDS011;64927;48.214;16.378;2023-04-24T11:38:03;1.98;;;0.90;;
76167;SDS011;64927;48.214;16.378;2023-04-24T11:40:30;2.38;;;0.63;;
76167;SDS011;64927;48.214;16.378;2023-04-24T11:42:56;1.38;;;0.60;;
76167;SDS011;64927;48.214;16.378;2023-04-24T11:45:27;4.90;;;2.65;;
76167;SDS011;64927;48.214;16.378;2023-04-24T11:47:54;1.20;;;0.77;;
76167;SDS011;64927;48.214;16.378;2023-04-24T11:50:24;2.05;;;0.82;;
76167;SDS011;64927;48.214;16.378;2023-04-24T11:52:52;0.95;;;0.85;;
76167;SDS011;64927;48.214;16.378;2023-04-24T11:57:48;0.80;;;0.77;;
76167;SDS011;64927;48.214;16.378;2023-04-24T12:00:19;2.47;;;0.90;;
76167;SDS011;64927;48.214;16.378;2023-04-24T12:03:10;2.15;;;0.68;;
76167;SDS011;64927;48.214;16.378;2023-04-24T12:05:37;4.70;;;2.95;;
76167;SDS011;64927;48.214;16.378;2023-04-24T12:08:03;6.20;;;3.35;;
76167;SDS011;64927;48.214;16.378;2023-04-24T12:10:30;2.30;;;1.75;;
76167;SDS011;64927;48.214;16.378;2023-04-24T12:13:01;1.58;;;1.10;;
76167;SDS011;64927;48.214;16.378;2023-04-24T12:15:27;2.30;;;0.95;;
76167;SDS011;64927;48.214;16.378;2023-04-24T12:17:53;2.03;;;1.20;;
76167;SDS011;64927;48.214;16.378;2023-04-24T12:20:24;3.75;;;1.17;;
76167;SDS011;64927;48.214;16.378;2023-04-24T12:22:56;1.15;;;0.73;;
76167;SDS011;64927;48.214;16.378;2023-04-24T12:25:28;2.65;;;0.90;;
76167;SDS011;64927;48.214;16.378;2023-04-24T12:30:41;1.88;;;0.80;;
76167;SDS011;64927;48.214;16.378;2023-04-24T12:33:17;2.45;;;1.20;;
76167;SDS011;64927;48.214;16.378;2023-04-24T12:35:43;1.33;;;0.82;;
76167;SDS011;64927;48.214;16.378;2023-04-24T12:38:10;1.48;;;0.85;;
76167;SDS011;64927;48.214;16.378;2023-04-24T12:40:42;2.15;;;1.00;;
76167;SDS011;64927;48.214;16.378;2023-04-24T12:45:44;6.47;;;3.05;;
76167;SDS011;64927;48.214;16.378;2023-04-24T12:48:12;2.40;;;1.50;;
76167;SDS011;64927;48.214;16.378;2023-04-24T12:50:41;3.67;;;1.42;;
76167;SDS011;64927;48.214;16.378;2023-04-24T12:53:08;1.77;;;1.00;;
76167;SDS011;64927;48.214;16.378;2023-04-24T12:55:34;5.10;;;2.58;;
76167;SDS011;64927;48.214;16.378;2023-04-24T12:58:02;2.38;;;1.20;;
76167;SDS011;64927;48.214;16.378;2023-04-24T13:00:28;2.00;;;1.15;;
76167;SDS011;64927;48.214;16.378;2023-04-24T13:02:56;2.13;;;1.08;;
76167;SDS011;64927;48.214;16.378;2023-04-24T13:05:22;2.30;;;1.20;;
76167;SDS011;64927;48.214;16.378;2023-04-24T13:07:47;2.45;;;1.30;;
76167;SDS011;64927;48.214;16.378;2023-04-24T13:10:15;1.58;;;1.20;;
76167;SDS011;64927;48.214;16.378;2023-04-24T13:12:41;4.45;;;1.48;;
76167;SDS011;64927;48.214;16.378;2023-04-24T13:15:10;2.33;;;1.17;;
76167;SDS011;64927;48.214;16.378;2023-04-24T13:17:36;3.72;;;2.08;;
76167;SDS011;64927;48.214;16.378;2023-04-24T13:20:01;2.78;;;1.40;;
76167;SDS011;64927;48.214;16.378;2023-04-24T13:22:27;1.52;;;1.10;;
76167;SDS011;64927;48.214;16.378;2023-04-24T13:24:53;1.73;;;1.27;;
76167;SDS011;64927;48.214;16.378;2023-04-24T13:27:19;4.05;;;1.20;;
76167;SDS011;64927;48.214;16.378;2023-04-24T13:29:45;3.60;;;1.58;;
76167;SDS011;64927;48.214;16.378;2023-04-24T13:32:11;1.70;;;1.27;;
76167;SDS011;64927;48.214;16.378;2023-04-24T13:34:36;1.98;;;1.08;;
76167;SDS011;64927;48.214;16.378;2023-04-24T13:37:03;2.70;;;1.35;;
76167;SDS011;64927;48.214;16.378;2023-04-24T13:39:29;4.18;;;1.52;;
76167;SDS011;64927;48.214;16.378;2023-04-24T13:41:55;2.45;;;1.70;;
76167;SDS011;64927;48.214;16.378;2023-04-24T13:44:23;2.13;;;1.75;;
76167;SDS011;64927;48.214;16.378;2023-04-24T13:46:53;2.65;;;1.20;;
76167;SDS011;64927;48.214;16.378;2023-04-24T13:49:23;2.95;;;1.27;;
76167;SDS011;64927;48.214;16.378;2023-04-24T13:51:52;7.53;;;2.38;;
76167;SDS011;64927;48.214;16.378;2023-04-24T13:54:20;4.03;;;1.73;;
76167;SDS011;64927;48.214;16.378;2023-04-24T13:56:47;4.25;;;1.60;;
76167;SDS011;64927;48.214;16.378;2023-04-24T13:59:12;1.95;;;1.40;;
76167;SDS011;64927;48.214;16.378;2023-04-24T14:01:38;2.28;;;1.83;;
76167;SDS011;64927;48.214;16.378;2023-04-24T14:04:04;2.08;;;1.50;;
76167;SDS011;64927;48.214;16.378;2023-04-24T14:06:30;1.73;;;1.30;;
76167;SDS011;64927;48.214;16.378;2023-04-24T14:08:56;2.72;;;1.33;;
76167;SDS011;64927;48.214;16.378;2023-04-24T14:11:22;4.88;;;2.40;;
76167;SDS011;64927;48.214;16.378;2023-04-24T14:13:54;2.35;;;1.30;;
76167;SDS011;64927;48.214;16.378;2023-04-24T14:16:21;2.00;;;1.65;;
76167;SDS011;64927;48.214;16.378;2023-04-24T14:18:47;4.20;;;2.03;;
76167;SDS011;64927;48.214;16.378;2023-04-24T14:21:12;1.60;;;1.33;;
76167;SDS011;64927;48.214;16.378;2023-04-24T14:23:38;4.75;;;1.60;;
76167;SDS011;64927;48.214;16.378;2023-04-24T14:26:04;2.60;;;1.55;;
76167;SDS011;64927;48.214;16.378;2023-04-24T14:28:34;2.03;;;1.23;;
76167;SDS011;64927;48.214;16.378;2023-04-24T14:31:00;2.60;;;1.38;;
76167;SDS011;64927;48.214;16.378;2023-04-24T14:33:28;1.80;;;1.00;;
76167;SDS011;64927;48.214;16.378;2023-04-24T14:35:53;2.08;;;1.40;;
76167;SDS011;64927;48.214;16.378;2023-04-24T14:38:19;2.92;;;1.10;;
76167;SDS011;64927;48.214;16.378;2023-04-24T14:40:47;5.95;;;1.60;;
76167;SDS011;64927;48.214;16.378;2023-04-24T14:43:13;3.20;;;1.60;;
76167;SDS011;64927;48.214;16.378;2023-04-24T14:45:41;3.30;;;1.40;;
76167;SDS011;64927;48.214;16.378;2023-04-24T14:48:07;4.65;;;1.77;;
76167;SDS011;64927;48.214;16.378;2023-04-24T14:50:33;2.65;;;1.40;;